createdAt,value
2023-12-18T00:00:50.699Z,1.75
2023-12-18T00:03:20.608Z,1.33
2023-12-18T00:05:49.108Z,1.00
2023-12-18T00:08:17.552Z,1.45
2023-12-18T00:10:46.187Z,2.88
2023-12-18T00:13:14.693Z,1.70
2023-12-18T00:15:43.151Z,1.65
2023-12-18T00:18:11.688Z,2.53
2023-12-18T00:20:41.514Z,2.38
2023-12-18T00:23:09.928Z,1.30
2023-12-18T00:25:39.361Z,1.88
2023-12-18T00:28:08.042Z,1.55
2023-12-18T00:30:36.650Z,1.40
2023-12-18T00:33:05.770Z,1.70
2023-12-18T00:35:34.277Z,1.13
2023-12-18T00:38:04.090Z,2.75
2023-12-18T00:40:32.503Z,1.35
2023-12-18T00:43:00.951Z,2.22
2023-12-18T00:45:29.466Z,1.70
2023-12-18T00:47:57.952Z,1.05
2023-12-18T00:50:26.741Z,0.70
2023-12-18T00:52:55.162Z,1.00
2023-12-18T00:55:24.967Z,0.70
2023-12-18T00:57:54.416Z,1.23
2023-12-18T01:00:23.366Z,0.82
2023-12-18T01:02:52.052Z,1.08
2023-12-18T01:05:20.481Z,1.17
2023-12-18T01:07:48.934Z,0.82
2023-12-18T01:10:17.457Z,0.65
2023-12-18T01:12:47.375Z,0.75
2023-12-18T01:15:18.951Z,0.88
2023-12-18T01:17:47.632Z,0.50
2023-12-18T01:20:16.299Z,0.63
2023-12-18T01:22:47.023Z,0.90
2023-12-18T01:25:21.002Z,1.42
2023-12-18T01:27:50.795Z,1.05
2023-12-18T01:30:19.380Z,0.80
2023-12-18T01:32:47.985Z,0.85
2023-12-18T01:35:16.428Z,1.67
2023-12-18T01:37:44.857Z,0.60
2023-12-18T01:40:14.248Z,1.27
2023-12-18T01:42:45.594Z,2.38
2023-12-18T01:45:15.585Z,0.75
2023-12-18T01:47:44.382Z,0.85
2023-12-18T01:50:14.048Z,0.93
2023-12-18T01:52:41.685Z,0.88
2023-12-18T01:55:12.114Z,0.80
2023-12-18T01:57:40.928Z,0.73
2023-12-18T02:00:11.659Z,1.08
2023-12-18T02:02:42.604Z,0.98
2023-12-18T02:05:11.262Z,1.63
2023-12-18T02:07:40.923Z,0.70
2023-12-18T02:10:09.834Z,0.68
2023-12-18T02:12:38.301Z,0.75
2023-12-18T02:15:08.016Z,1.50
2023-12-18T02:17:36.492Z,1.00
2023-12-18T02:20:10.450Z,0.60
2023-12-18T02:22:46.999Z,1.07
2023-12-18T02:25:18.324Z,0.65
2023-12-18T02:27:47.580Z,2.05
2023-12-18T02:30:17.429Z,0.75
2023-12-18T02:32:46.147Z,1.02
2023-12-18T02:35:15.095Z,0.70
2023-12-18T02:37:45.098Z,1.23
2023-12-18T02:40:13.790Z,1.00
2023-12-18T02:42:42.271Z,1.00
2023-12-18T02:45:11.454Z,1.10
2023-12-18T02:47:40.211Z,1.08
2023-12-18T02:50:09.439Z,2.30
2023-12-18T02:52:37.859Z,0.60
2023-12-18T02:55:08.389Z,1.40
2023-12-18T02:57:36.975Z,0.63
2023-12-18T03:00:06.754Z,1.02
2023-12-18T03:02:35.218Z,1.10
2023-12-18T03:05:03.759Z,0.60
2023-12-18T03:07:32.210Z,0.55
2023-12-18T03:10:00.646Z,0.70
2023-12-18T03:12:30.710Z,0.60
2023-12-18T03:14:59.303Z,0.47
2023-12-18T03:17:27.751Z,0.65
2023-12-18T03:19:56.172Z,0.73
2023-12-18T03:22:24.643Z,1.15
2023-12-18T03:24:53.119Z,1.30
2023-12-18T03:27:21.612Z,0.25
2023-12-18T03:29:51.364Z,0.60
2023-12-18T03:32:19.785Z,0.90
2023-12-18T03:34:48.186Z,0.65
2023-12-18T03:37:16.605Z,0.57
2023-12-18T03:39:45.061Z,0.30
2023-12-18T03:42:14.178Z,0.70
2023-12-18T03:44:43.586Z,1.50
2023-12-18T03:47:13.330Z,0.40
2023-12-18T03:49:41.842Z,0.65
2023-12-18T03:52:10.304Z,0.35
2023-12-18T03:54:38.739Z,0.70
2023-12-18T03:57:07.162Z,1.00
2023-12-18T03:59:35.875Z,0.73
2023-12-18T04:02:04.413Z,1.42
2023-12-18T04:04:34.219Z,0.63
2023-12-18T04:07:02.617Z,0.45
2023-12-18T04:09:31.042Z,0.38
2023-12-18T04:11:59.513Z,0.50
2023-12-18T04:14:27.918Z,0.88
2023-12-18T04:16:56.265Z,3.20
2023-12-18T04:19:24.712Z,0.63
2023-12-18T04:21:54.526Z,0.52
2023-12-18T04:24:22.991Z,0.50
2023-12-18T04:26:51.468Z,0.95
2023-12-18T04:29:19.893Z,1.05
2023-12-18T04:31:48.630Z,0.93
2023-12-18T04:34:17.177Z,0.70
2023-12-18T04:36:46.106Z,0.65
2023-12-18T04:39:16.252Z,0.30
2023-12-18T04:41:46.156Z,0.52
2023-12-18T04:44:14.551Z,2.25
2023-12-18T04:46:43.045Z,0.90
2023-12-18T04:49:11.497Z,0.88
2023-12-18T04:51:39.945Z,0.68
2023-12-18T04:54:08.405Z,0.70
2023-12-18T04:56:38.177Z,0.55
2023-12-18T04:59:06.551Z,1.52
2023-12-18T05:01:34.948Z,1.58
2023-12-18T05:04:03.472Z,0.68
2023-12-18T05:06:31.978Z,0.50
2023-12-18T05:09:00.396Z,0.93
2023-12-18T05:11:27.805Z,0.47
2023-12-18T05:13:57.582Z,0.50
2023-12-18T05:16:25.955Z,0.32
2023-12-18T05:18:55.297Z,0.65
2023-12-18T05:21:23.800Z,1.25
2023-12-18T05:23:52.358Z,0.77
2023-12-18T05:26:20.767Z,0.47
2023-12-18T05:28:49.254Z,1.27
2023-12-18T05:31:21.424Z,0.63
2023-12-18T05:33:50.187Z,1.70
2023-12-18T05:36:18.835Z,0.93
2023-12-18T05:38:47.405Z,1.00
2023-12-18T05:41:15.910Z,1.00
2023-12-18T05:43:44.289Z,1.13
2023-12-18T05:46:14.081Z,0.98
2023-12-18T05:48:43.882Z,2.05
2023-12-18T05:51:21.063Z,1.35
2023-12-18T05:53:50.105Z,2.00
2023-12-18T05:56:18.711Z,1.67
2023-12-18T05:58:47.130Z,4.75
2023-12-18T06:01:15.602Z,4.90
2023-12-18T06:03:45.542Z,3.33
2023-12-18T06:06:13.998Z,2.30
2023-12-18T06:08:42.419Z,1.92
2023-12-18T06:11:10.870Z,2.17
2023-12-18T06:13:40.328Z,1.88
2023-12-18T06:16:08.888Z,2.35
2023-12-18T06:18:37.395Z,6.95
2023-12-18T06:21:08.039Z,6.07
2023-12-18T06:23:36.557Z,5.38
2023-12-18T06:26:06.261Z,15.07
2023-12-18T06:28:34.724Z,9.75
2023-12-18T06:31:03.691Z,4.43
2023-12-18T06:33:32.319Z,3.50
2023-12-18T06:36:00.785Z,2.50
2023-12-18T06:38:30.466Z,2.75
2023-12-18T06:40:58.859Z,1.60
2023-12-18T06:43:27.563Z,2.25
2023-12-18T06:45:56.353Z,2.30
2023-12-18T06:48:24.968Z,2.55
2023-12-18T06:50:53.443Z,3.58
2023-12-18T06:53:21.826Z,4.78
2023-12-18T06:55:51.613Z,3.53
2023-12-18T06:58:19.995Z,3.47
2023-12-18T07:00:48.668Z,3.85
2023-12-18T07:03:17.234Z,2.65
2023-12-18T07:05:45.647Z,1.90
2023-12-18T07:08:14.242Z,1.15
2023-12-18T07:10:42.804Z,1.98
2023-12-18T07:13:12.561Z,1.60
2023-12-18T07:15:41.071Z,1.98
2023-12-18T07:18:09.777Z,4.18
2023-12-18T07:20:38.340Z,2.33
2023-12-18T07:23:07.052Z,1.58
2023-12-18T07:25:35.462Z,1.85
2023-12-18T07:28:08.869Z,1.80
2023-12-18T07:30:40.109Z,1.92
2023-12-18T07:33:09.101Z,2.55
2023-12-18T07:35:37.629Z,1.90
2023-12-18T07:38:06.200Z,1.98
2023-12-18T07:40:34.575Z,3.17
2023-12-18T07:43:03.531Z,2.72
2023-12-18T07:45:32.005Z,4.28
2023-12-18T07:48:01.928Z,3.15
2023-12-18T07:50:30.361Z,2.67
2023-12-18T07:52:58.737Z,1.08
2023-12-18T07:55:27.172Z,1.50
2023-12-18T07:57:55.618Z,0.90
2023-12-18T08:00:24.087Z,1.10
2023-12-18T08:02:52.553Z,1.20
2023-12-18T08:05:22.447Z,0.82
2023-12-18T08:07:50.863Z,1.25
2023-12-18T08:10:19.235Z,2.67
2023-12-18T08:12:47.813Z,1.35
2023-12-18T08:15:16.436Z,0.93
2023-12-18T08:17:44.900Z,3.03
2023-12-18T08:20:13.432Z,1.60
2023-12-18T08:22:43.347Z,1.48
2023-12-18T08:25:11.852Z,1.92
2023-12-18T08:27:41.636Z,2.08
2023-12-18T08:30:11.495Z,2.78
2023-12-18T08:32:41.179Z,2.50
2023-12-18T08:35:10.482Z,1.48
2023-12-18T08:37:38.922Z,2.20
2023-12-18T08:40:10.298Z,1.33
2023-12-18T08:42:38.827Z,1.95
2023-12-18T08:45:07.958Z,2.63
2023-12-18T08:47:36.365Z,1.40
2023-12-18T08:50:05.398Z,2.03
2023-12-18T08:52:33.849Z,1.50
2023-12-18T08:55:02.242Z,1.42
2023-12-18T08:57:32.025Z,4.38
2023-12-18T09:00:00.584Z,1.65
2023-12-18T09:02:29.014Z,3.20
2023-12-18T09:04:57.499Z,2.38
2023-12-18T09:07:25.938Z,1.23
2023-12-18T09:09:54.344Z,1.65
2023-12-18T09:12:22.853Z,1.23
2023-12-18T09:14:52.809Z,2.00
2023-12-18T09:17:21.343Z,2.10
2023-12-18T09:19:49.808Z,1.67
2023-12-18T09:22:18.336Z,1.10
2023-12-18T09:24:46.848Z,3.30
2023-12-18T09:27:15.897Z,3.28
2023-12-18T09:29:44.413Z,2.47
2023-12-18T09:32:14.274Z,1.77
2023-12-18T09:34:42.878Z,1.30
2023-12-18T09:37:11.496Z,1.45
2023-12-18T09:39:42.356Z,3.10
2023-12-18T09:42:13.681Z,7.15
2023-12-18T09:44:43.335Z,12.18
2023-12-18T09:47:12.040Z,12.05
2023-12-18T09:49:42.019Z,6.53
2023-12-18T09:52:13.024Z,4.68
2023-12-18T09:54:44.097Z,4.07
2023-12-18T09:57:16.841Z,3.30
2023-12-18T09:59:46.321Z,1.83
2023-12-18T10:02:15.567Z,2.25
2023-12-18T10:04:45.334Z,1.58
2023-12-18T10:07:13.775Z,1.80
2023-12-18T10:09:41.275Z,2.75
2023-12-18T10:12:10.449Z,3.08
2023-12-18T10:14:38.930Z,4.20
2023-12-18T10:17:08.181Z,2.38
2023-12-18T10:19:37.493Z,1.83
2023-12-18T10:22:07.998Z,2.83
2023-12-18T10:24:42.112Z,2.70
2023-12-18T10:27:10.682Z,2.60
2023-12-18T10:29:39.204Z,1.45
2023-12-18T10:32:10.208Z,3.08
2023-12-18T10:34:38.836Z,2.05
2023-12-18T10:37:10.326Z,1.08
2023-12-18T10:39:43.054Z,1.13
2023-12-18T10:42:18.360Z,1.45
2023-12-18T10:44:47.169Z,2.40
2023-12-18T10:47:17.357Z,1.88
2023-12-18T10:49:47.368Z,1.90
2023-12-18T10:52:19.973Z,1.55
2023-12-18T10:54:50.670Z,1.73
2023-12-18T10:57:22.317Z,1.15
2023-12-18T10:59:52.359Z,2.63
2023-12-18T11:02:21.518Z,2.03
2023-12-18T11:04:50.741Z,0.70
2023-12-18T11:07:21.133Z,1.48
2023-12-18T11:09:50.808Z,1.08
2023-12-18T11:12:21.279Z,2.58
2023-12-18T11:14:59.518Z,1.80
2023-12-18T11:17:38.315Z,1.25
2023-12-18T11:20:12.775Z,0.70
2023-12-18T11:22:46.593Z,1.95
2023-12-18T11:25:15.457Z,1.50
2023-12-18T11:27:44.840Z,1.55
2023-12-18T11:30:28.787Z,1.88
2023-12-18T11:32:58.777Z,1.70
2023-12-18T11:35:29.902Z,0.93
2023-12-18T11:38:08.050Z,1.10
2023-12-18T11:40:42.526Z,1.50
2023-12-18T11:43:12.348Z,1.42
2023-12-18T11:45:43.276Z,3.83
2023-12-18T11:48:18.500Z,1.33
2023-12-18T11:50:51.228Z,2.92
2023-12-18T11:53:34.025Z,1.30
2023-12-18T11:56:08.131Z,2.25
2023-12-18T11:58:37.902Z,2.50
2023-12-18T12:01:06.944Z,1.02
2023-12-18T12:03:35.827Z,1.27
2023-12-18T12:06:07.868Z,0.68
2023-12-18T12:08:43.848Z,4.53
2023-12-18T12:11:12.488Z,1.85
2023-12-18T12:13:40.976Z,1.65
2023-12-18T12:16:09.618Z,0.90
2023-12-18T12:18:48.920Z,1.67
2023-12-18T12:21:18.422Z,0.82
2023-12-18T12:23:49.068Z,0.60
2023-12-18T12:26:19.265Z,0.85
2023-12-18T12:28:49.386Z,0.70
2023-12-18T12:31:19.025Z,0.63
2023-12-18T12:33:49.881Z,0.47
2023-12-18T12:36:22.448Z,0.30
2023-12-18T12:38:56.688Z,0.63
2023-12-18T12:41:25.379Z,1.08
2023-12-18T12:43:53.841Z,2.15
2023-12-18T12:46:29.858Z,1.48
2023-12-18T12:49:04.303Z,0.45
2023-12-18T12:51:34.282Z,0.60
2023-12-18T12:54:06.628Z,0.85
2023-12-18T12:56:35.029Z,1.90
2023-12-18T12:59:04.854Z,0.85
2023-12-18T13:01:33.339Z,1.60
2023-12-18T13:04:01.850Z,2.47
2023-12-18T13:06:30.334Z,1.13
2023-12-18T13:08:58.809Z,0.80
2023-12-18T13:11:28.620Z,0.80
2023-12-18T13:14:05.549Z,1.25
2023-12-18T13:16:40.419Z,1.25
2023-12-18T13:19:09.047Z,0.90
2023-12-18T13:21:39.256Z,0.88
2023-12-18T13:24:08.068Z,3.20
2023-12-18T13:26:37.832Z,2.10
2023-12-18T13:29:06.289Z,2.08
2023-12-18T13:31:35.198Z,1.02
2023-12-18T13:34:04.954Z,1.08
2023-12-18T13:36:35.431Z,2.00
2023-12-18T13:39:04.376Z,1.73
2023-12-18T13:41:33.532Z,1.30
2023-12-18T13:44:04.693Z,1.77
2023-12-18T13:46:33.161Z,1.52
2023-12-18T13:49:01.757Z,1.80
2023-12-18T13:51:30.337Z,1.35
2023-12-18T13:53:58.752Z,1.35
2023-12-18T13:56:27.756Z,1.27
2023-12-18T13:58:56.247Z,2.45
2023-12-18T14:01:26.221Z,2.65
2023-12-18T14:03:54.833Z,6.30
2023-12-18T14:06:24.749Z,3.00
2023-12-18T14:08:53.152Z,4.03
2023-12-18T14:11:21.776Z,2.05
2023-12-18T14:13:50.281Z,1.85
2023-12-18T14:16:19.845Z,1.60
2023-12-18T14:18:54.535Z,2.58
2023-12-18T14:21:23.361Z,3.10
2023-12-18T14:23:51.779Z,2.47
2023-12-18T14:26:20.517Z,2.15
2023-12-18T14:28:49.111Z,3.03
2023-12-18T14:31:17.603Z,1.95
2023-12-18T14:33:46.470Z,1.52
2023-12-18T14:36:16.424Z,2.25
2023-12-18T14:38:44.913Z,2.28
2023-12-18T14:41:13.317Z,3.25
2023-12-18T14:43:41.721Z,2.10
2023-12-18T14:46:11.548Z,2.85
2023-12-18T14:48:42.039Z,2.70
2023-12-18T14:51:10.690Z,1.55
2023-12-18T14:53:40.549Z,2.15
2023-12-18T14:56:10.028Z,2.30
2023-12-18T14:58:38.456Z,2.22
2023-12-18T15:01:07.213Z,2.92
2023-12-18T15:03:35.814Z,2.00
2023-12-18T15:06:04.632Z,2.20
2023-12-18T15:08:34.817Z,2.22
2023-12-18T15:11:04.818Z,2.33
2023-12-18T15:13:33.395Z,1.65
2023-12-18T15:16:01.958Z,3.15
2023-12-18T15:18:30.462Z,1.65
2023-12-18T15:20:58.888Z,2.25
2023-12-18T15:23:27.335Z,1.35
2023-12-18T15:25:55.726Z,2.38
2023-12-18T15:28:29.545Z,2.47
2023-12-18T15:30:59.400Z,8.20
2023-12-18T15:33:27.962Z,13.95
2023-12-18T15:35:58.910Z,5.88
2023-12-18T15:38:31.961Z,8.18
2023-12-18T15:41:00.581Z,12.35
2023-12-18T15:43:30.336Z,24.48
2023-12-18T15:45:58.831Z,9.25
2023-12-18T15:48:27.425Z,10.93
2023-12-18T15:50:56.321Z,8.25
2023-12-18T15:53:24.775Z,5.38
2023-12-18T15:55:53.996Z,3.97
2023-12-18T15:58:22.382Z,5.07
2023-12-18T16:00:52.319Z,3.85
2023-12-18T16:03:20.941Z,7.65
2023-12-18T16:05:49.507Z,6.90
2023-12-18T16:08:17.985Z,5.13
2023-12-18T16:10:46.496Z,5.82
2023-12-18T16:13:15.704Z,7.13
2023-12-18T16:15:44.256Z,7.75
2023-12-18T16:18:14.192Z,5.93
2023-12-18T16:20:42.909Z,4.40
2023-12-18T16:23:13.406Z,4.47
2023-12-18T16:25:41.929Z,5.90
2023-12-18T16:28:10.569Z,4.80
2023-12-18T16:30:45.126Z,7.38
2023-12-18T16:33:22.743Z,6.28
2023-12-18T16:35:51.300Z,5.70
2023-12-18T16:38:19.841Z,8.20
2023-12-18T16:40:52.288Z,7.60
2023-12-18T16:43:20.770Z,6.30
2023-12-18T16:45:49.614Z,7.25
2023-12-18T16:48:18.364Z,7.07
2023-12-18T16:50:49.936Z,4.80
2023-12-18T16:53:18.408Z,13.20
2023-12-18T16:55:47.029Z,4.97
2023-12-18T16:58:15.544Z,4.90
2023-12-18T17:00:46.600Z,3.65
2023-12-18T17:03:15.582Z,4.38
2023-12-18T17:05:43.995Z,3.45
2023-12-18T17:08:14.359Z,4.18
2023-12-18T17:10:42.883Z,3.22
2023-12-18T17:13:13.285Z,2.88
2023-12-18T17:15:43.723Z,6.45
2023-12-18T17:18:12.898Z,3.45
2023-12-18T17:20:41.359Z,4.97
2023-12-18T17:23:09.857Z,6.38
2023-12-18T17:25:39.887Z,4.43
2023-12-18T17:28:08.413Z,4.10
2023-12-18T17:30:37.099Z,6.10
2023-12-18T17:33:06.453Z,12.90
2023-12-18T17:35:34.978Z,9.88
2023-12-18T17:38:03.765Z,6.82
2023-12-18T17:40:32.003Z,6.00
2023-12-18T17:43:01.890Z,5.72
2023-12-18T17:45:30.400Z,3.13
2023-12-18T17:47:59.065Z,2.92
2023-12-18T17:50:28.764Z,3.65
2023-12-18T17:52:57.215Z,3.08
2023-12-18T17:55:25.733Z,3.10
2023-12-18T17:57:54.838Z,2.65
2023-12-18T18:00:25.507Z,4.93
2023-12-18T18:02:54.207Z,3.65
2023-12-18T18:05:22.634Z,2.70
2023-12-18T18:07:51.034Z,3.17
2023-12-18T18:10:19.539Z,4.75
2023-12-18T18:12:48.039Z,3.20
2023-12-18T18:15:16.582Z,3.50
2023-12-18T18:17:46.773Z,4.18
2023-12-18T18:20:16.704Z,3.88
2023-12-18T18:22:45.192Z,3.72
2023-12-18T18:25:13.806Z,4.88
2023-12-18T18:27:42.575Z,2.95
2023-12-18T18:30:12.599Z,3.08
2023-12-18T18:32:42.876Z,2.60
2023-12-18T18:35:12.825Z,3.60
2023-12-18T18:37:41.576Z,3.50
2023-12-18T18:40:12.677Z,12.38
2023-12-18T18:42:41.136Z,9.35
2023-12-18T18:45:10.308Z,5.70
2023-12-18T18:47:38.727Z,4.20
2023-12-18T18:50:08.131Z,4.32
2023-12-18T18:52:37.976Z,2.80
2023-12-18T18:55:07.297Z,2.13
2023-12-18T18:57:35.743Z,2.85
2023-12-18T19:00:17.386Z,3.20
2023-12-18T19:02:47.786Z,2.25
2023-12-18T19:05:17.551Z,3.45
2023-12-18T19:07:47.552Z,3.13
2023-12-18T19:10:16.911Z,5.45
2023-12-18T19:12:45.440Z,4.13
2023-12-18T19:15:14.098Z,5.03
2023-12-18T19:17:43.354Z,3.42
2023-12-18T19:20:12.326Z,4.40
2023-12-18T19:22:42.104Z,3.50
2023-12-18T19:25:11.981Z,4.15
2023-12-18T19:27:40.974Z,3.45
2023-12-18T19:30:10.947Z,4.32
2023-12-18T19:32:39.453Z,4.10
2023-12-18T19:35:09.265Z,9.07
2023-12-18T19:37:37.694Z,6.57
2023-12-18T19:40:07.221Z,3.50
2023-12-18T19:42:37.080Z,2.83
2023-12-18T19:45:06.199Z,3.97
2023-12-18T19:47:34.625Z,3.40
2023-12-18T19:50:03.593Z,2.63
2023-12-18T19:52:32.169Z,4.57
2023-12-18T19:55:01.269Z,5.50
2023-12-18T19:57:34.201Z,3.88
2023-12-18T20:00:05.425Z,3.38
2023-12-18T20:02:36.669Z,7.18
2023-12-18T20:05:05.586Z,10.25
2023-12-18T20:07:34.092Z,4.90
2023-12-18T20:10:06.887Z,7.00
2023-12-18T20:12:35.486Z,6.78
2023-12-18T20:15:06.278Z,7.88
2023-12-18T20:17:35.292Z,6.45
2023-12-18T20:20:03.912Z,6.75
2023-12-18T20:22:32.664Z,6.38
2023-12-18T20:25:01.150Z,5.68
2023-12-18T20:27:29.721Z,4.72
2023-12-18T20:29:58.260Z,8.93
2023-12-18T20:32:28.452Z,5.63
2023-12-18T20:34:57.370Z,4.35
2023-12-18T20:37:26.013Z,3.17
2023-12-18T20:39:54.508Z,2.83
2023-12-18T20:42:23.065Z,3.28
2023-12-18T20:44:51.486Z,3.33
2023-12-18T20:47:20.035Z,2.83
2023-12-18T20:49:49.895Z,2.35
2023-12-18T20:52:18.372Z,2.47
2023-12-18T20:54:46.792Z,1.98
2023-12-18T20:57:16.959Z,2.50
2023-12-18T20:59:45.524Z,1.73
2023-12-18T21:02:14.783Z,5.43
2023-12-18T21:04:43.366Z,3.80
2023-12-18T21:07:14.738Z,3.28
2023-12-18T21:09:43.969Z,3.08
2023-12-18T21:12:12.542Z,4.10
2023-12-18T21:14:40.977Z,3.83
2023-12-18T21:17:09.574Z,3.47
2023-12-18T21:19:39.656Z,2.78
2023-12-18T21:22:08.230Z,3.13
2023-12-18T21:24:38.160Z,4.03
2023-12-18T21:27:06.760Z,2.80
2023-12-18T21:29:34.188Z,3.30
2023-12-18T21:32:03.181Z,2.17
2023-12-18T21:34:33.482Z,2.65
2023-12-18T21:37:02.004Z,3.65
2023-12-18T21:39:30.891Z,3.10
2023-12-18T21:42:03.354Z,2.95
2023-12-18T21:44:32.228Z,3.28
2023-12-18T21:47:00.617Z,3.30
2023-12-18T21:49:29.074Z,2.72
2023-12-18T21:51:57.631Z,8.45
2023-12-18T21:54:26.174Z,2.13
2023-12-18T21:56:54.616Z,2.72
2023-12-18T21:59:24.339Z,3.65
2023-12-18T22:01:52.780Z,6.05
2023-12-18T22:04:21.678Z,3.33
2023-12-18T22:06:51.475Z,6.40
2023-12-18T22:09:19.987Z,3.45
2023-12-18T22:11:48.379Z,3.25
2023-12-18T22:14:16.746Z,2.50
2023-12-18T22:16:47.000Z,2.38
2023-12-18T22:19:15.459Z,2.33
2023-12-18T22:21:43.930Z,2.17
2023-12-18T22:24:12.404Z,1.95
2023-12-18T22:26:40.813Z,3.10
2023-12-18T22:29:09.217Z,2.50
2023-12-18T22:31:38.289Z,2.70
2023-12-18T22:34:09.040Z,2.17
2023-12-18T22:36:39.290Z,2.47
2023-12-18T22:39:11.710Z,3.72
2023-12-18T22:41:41.683Z,1.90
2023-12-18T22:44:11.422Z,2.53
2023-12-18T22:46:40.082Z,1.60
2023-12-18T22:49:10.217Z,1.50
2023-12-18T22:51:40.724Z,1.75
2023-12-18T22:54:09.296Z,2.45
2023-12-18T22:56:37.685Z,2.15
2023-12-18T22:59:06.100Z,3.97
2023-12-18T23:01:34.558Z,2.50
2023-12-18T23:04:03.376Z,1.92
2023-12-18T23:06:33.418Z,1.52
2023-12-18T23:09:02.241Z,1.70
2023-12-18T23:11:30.646Z,15.25
2023-12-18T23:13:59.361Z,8.73
2023-12-18T23:16:27.742Z,6.00
2023-12-18T23:18:56.242Z,3.58
2023-12-18T23:21:24.764Z,2.38
2023-12-18T23:23:57.604Z,1.50
2023-12-18T23:26:26.447Z,1.48
2023-12-18T23:28:54.992Z,3.30
2023-12-18T23:31:23.555Z,0.98
2023-12-18T23:33:52.245Z,1.58
2023-12-18T23:36:20.745Z,1.67
2023-12-18T23:38:49.130Z,1.52
2023-12-18T23:41:20.051Z,1.40
2023-12-18T23:43:48.549Z,1.70
2023-12-18T23:46:17.019Z,1.77
2023-12-18T23:48:45.501Z,1.88
2023-12-18T23:51:14.037Z,2.25
2023-12-18T23:53:42.424Z,1.40
2023-12-18T23:56:11.148Z,1.40
2023-12-18T23:58:40.864Z,1.75
